createdAt,value
2018-12-25T00:00:50.012Z,87.40
2018-12-25T00:03:18.548Z,87.60
2018-12-25T00:05:47.028Z,87.70
2018-12-25T00:08:15.472Z,87.70
2018-12-25T00:10:43.963Z,87.80
2018-12-25T00:13:12.433Z,87.80
2018-12-25T00:15:40.909Z,87.90
2018-12-25T00:18:09.367Z,87.90
2018-12-25T00:20:37.854Z,88.00
2018-12-25T00:23:06.317Z,88.10
2018-12-25T00:25:34.799Z,88.30
2018-12-25T00:28:03.265Z,88.50
2018-12-25T00:30:31.757Z,88.80
2018-12-25T00:33:00.287Z,89.00
2018-12-25T00:35:28.745Z,89.00
2018-12-25T00:37:57.275Z,88.90
2018-12-25T00:40:25.727Z,88.90
2018-12-25T00:42:54.195Z,88.90
2018-12-25T00:45:22.667Z,88.90
2018-12-25T00:47:51.126Z,89.00
2018-12-25T00:50:19.636Z,89.00
2018-12-25T00:52:48.088Z,89.00
2018-12-25T00:55:16.545Z,89.10
2018-12-25T00:57:45.021Z,89.20
2018-12-25T01:00:13.669Z,89.00
2018-12-25T01:02:42.157Z,89.30
2018-12-25T01:05:10.609Z,89.40
2018-12-25T01:07:39.075Z,89.50
2018-12-25T01:10:07.558Z,89.50
2018-12-25T01:12:36.023Z,89.90
2018-12-25T01:15:04.787Z,89.70
2018-12-25T01:17:33.337Z,89.90
2018-12-25T01:20:01.796Z,89.80
2018-12-25T01:22:30.268Z,89.80
2018-12-25T01:24:58.798Z,89.90
2018-12-25T01:27:27.288Z,89.80
2018-12-25T01:29:55.750Z,89.70
2018-12-25T01:32:24.208Z,89.60
2018-12-25T01:34:52.666Z,89.50
2018-12-25T01:37:21.144Z,89.70
2018-12-25T01:39:49.611Z,89.60
2018-12-25T01:42:18.096Z,89.50
2018-12-25T01:44:46.560Z,89.40
2018-12-25T01:47:15.016Z,89.30
2018-12-25T01:49:43.502Z,89.40
2018-12-25T01:52:11.996Z,89.40
2018-12-25T01:54:40.452Z,89.40
2018-12-25T01:57:08.944Z,89.50
2018-12-25T01:59:37.492Z,89.50
2018-12-25T02:02:06.046Z,89.50
2018-12-25T02:04:34.540Z,89.90
2018-12-25T02:07:02.994Z,90.00
2018-12-25T02:09:31.449Z,90.00
2018-12-25T02:11:59.933Z,89.90
2018-12-25T02:14:28.397Z,89.90
2018-12-25T02:16:56.856Z,90.00
2018-12-25T02:19:25.366Z,90.00
2018-12-25T02:21:53.872Z,90.10
2018-12-25T02:24:22.317Z,90.00
2018-12-25T02:26:50.799Z,90.10
2018-12-25T02:29:19.256Z,90.10
2018-12-25T02:31:47.727Z,90.10
2018-12-25T02:34:16.274Z,90.20
2018-12-25T02:36:44.784Z,90.20
2018-12-25T02:39:13.386Z,90.10
2018-12-25T02:41:41.968Z,90.20
2018-12-25T02:44:10.426Z,90.20
2018-12-25T02:46:38.885Z,90.20
2018-12-25T02:49:07.367Z,90.30
2018-12-25T02:51:35.834Z,90.40
2018-12-25T02:54:04.291Z,90.30
2018-12-25T02:56:32.780Z,90.30
2018-12-25T02:59:01.279Z,90.40
2018-12-25T03:01:29.748Z,90.40
2018-12-25T03:03:58.219Z,90.30
2018-12-25T03:06:26.673Z,90.30
2018-12-25T03:08:55.153Z,90.30
2018-12-25T03:11:23.627Z,90.30
2018-12-25T03:13:52.072Z,90.40
2018-12-25T03:16:20.638Z,90.30
2018-12-25T03:18:49.135Z,90.30
2018-12-25T03:21:17.588Z,90.30
2018-12-25T03:23:46.084Z,90.30
2018-12-25T03:26:14.561Z,90.20
2018-12-25T03:28:43.030Z,90.10
2018-12-25T03:31:11.497Z,90.10
2018-12-25T03:33:39.962Z,90.20
2018-12-25T03:36:08.429Z,90.10
2018-12-25T03:38:36.908Z,90.20
2018-12-25T03:41:05.371Z,90.20
2018-12-25T03:43:33.858Z,90.40
2018-12-25T03:46:02.351Z,90.20
2018-12-25T03:48:30.882Z,90.10
2018-12-25T03:50:59.413Z,90.30
2018-12-25T03:53:27.889Z,90.30
2018-12-25T03:55:56.470Z,90.30
2018-12-25T03:58:25.000Z,90.30
2018-12-25T04:00:53.465Z,90.40
2018-12-25T04:03:21.947Z,90.40
2018-12-25T04:05:50.423Z,90.30
2018-12-25T04:08:19.170Z,90.30
2018-12-25T04:10:47.638Z,90.30
2018-12-25T04:13:16.101Z,90.20
2018-12-25T04:15:44.577Z,90.20
2018-12-25T04:18:13.029Z,90.20
2018-12-25T04:20:41.506Z,90.10
2018-12-25T04:23:09.970Z,90.20
2018-12-25T04:25:38.443Z,90.00
2018-12-25T04:28:06.913Z,90.00
2018-12-25T04:30:35.397Z,90.00
2018-12-25T04:33:03.887Z,90.00
2018-12-25T04:35:32.353Z,89.90
2018-12-25T04:38:00.840Z,90.00
2018-12-25T04:40:29.325Z,90.00
2018-12-25T04:42:57.807Z,90.00
2018-12-25T04:45:26.496Z,90.00
2018-12-25T04:47:54.959Z,89.90
2018-12-25T04:50:29.265Z,89.70
2018-12-25T04:52:53.639Z,89.70
2018-12-25T04:55:22.110Z,89.70
2018-12-25T04:57:50.565Z,89.90
2018-12-25T05:00:19.036Z,89.90
2018-12-25T05:02:47.510Z,90.00
2018-12-25T05:05:15.998Z,90.00
2018-12-25T05:07:44.530Z,90.00
2018-12-25T05:10:12.992Z,90.00
2018-12-25T05:12:41.454Z,90.00
2018-12-25T05:15:09.928Z,90.10
2018-12-25T05:17:38.389Z,90.10
2018-12-25T05:20:06.948Z,90.10
2018-12-25T05:22:35.421Z,90.10
2018-12-25T05:25:03.886Z,90.00
2018-12-25T05:27:32.372Z,90.00
2018-12-25T05:30:00.847Z,90.10
2018-12-25T05:32:29.321Z,90.10
2018-12-25T05:34:57.784Z,90.00
2018-12-25T05:37:26.269Z,90.00
2018-12-25T05:39:54.720Z,90.00
2018-12-25T05:42:23.202Z,90.00
2018-12-25T05:44:51.672Z,90.00
2018-12-25T05:47:20.135Z,90.00
2018-12-25T05:49:48.608Z,90.00
2018-12-25T05:52:17.077Z,90.10
2018-12-25T05:54:45.590Z,90.00
2018-12-25T05:57:14.064Z,90.10
2018-12-25T05:59:42.519Z,90.10
2018-12-25T06:02:10.995Z,90.10
2018-12-25T06:04:39.459Z,90.00
2018-12-25T06:07:07.929Z,90.10
2018-12-25T06:09:36.389Z,90.10
2018-12-25T06:12:04.947Z,90.10
2018-12-25T06:14:33.411Z,90.00
2018-12-25T06:17:01.889Z,90.00
2018-12-25T06:19:30.363Z,90.00
2018-12-25T06:21:58.835Z,90.00
2018-12-25T06:24:27.303Z,90.00
2018-12-25T06:26:55.797Z,90.00
2018-12-25T06:29:24.268Z,90.00
2018-12-25T06:31:52.727Z,89.90
2018-12-25T06:34:29.929Z,89.90
2018-12-25T06:36:58.389Z,89.90
2018-12-25T06:39:26.913Z,90.00
2018-12-25T06:41:55.433Z,90.00
2018-12-25T06:44:24.015Z,89.90
2018-12-25T06:46:52.630Z,89.90
2018-12-25T06:49:21.259Z,89.70
2018-12-25T06:51:49.733Z,89.60
2018-12-25T06:54:18.197Z,89.50
2018-12-25T06:56:46.682Z,89.60
2018-12-25T06:59:15.145Z,89.50
2018-12-25T07:01:43.625Z,89.40
2018-12-25T07:04:12.103Z,89.40
2018-12-25T07:06:40.727Z,89.40
2018-12-25T07:09:09.245Z,89.30
2018-12-25T07:11:37.715Z,89.20
2018-12-25T07:14:06.210Z,89.20
2018-12-25T07:16:34.671Z,89.10
2018-12-25T07:19:03.331Z,89.00
2018-12-25T07:21:31.879Z,89.40
2018-12-25T07:24:00.356Z,89.40
2018-12-25T07:26:28.843Z,89.40
2018-12-25T07:28:57.317Z,89.30
2018-12-25T07:31:25.775Z,89.50
2018-12-25T07:33:54.761Z,89.20
2018-12-25T07:36:23.635Z,89.20
2018-12-25T07:38:52.161Z,89.20
2018-12-25T07:41:20.700Z,89.10
2018-12-25T07:43:49.176Z,89.10
2018-12-25T07:46:17.632Z,89.00
2018-12-25T07:48:46.209Z,88.90
2018-12-25T07:51:20.746Z,88.80
2018-12-25T07:53:44.855Z,88.60
2018-12-25T07:56:13.536Z,88.50
2018-12-25T07:58:42.343Z,88.70
2018-12-25T08:01:10.915Z,88.60
2018-12-25T08:03:39.439Z,88.40
2018-12-25T08:06:07.916Z,89.30
2018-12-25T08:08:36.398Z,88.40
2018-12-25T08:11:04.864Z,88.40
2018-12-25T08:13:52.673Z,88.40
2018-12-25T08:16:21.142Z,88.30
2018-12-25T08:18:49.616Z,88.00
2018-12-25T08:21:18.096Z,88.30
2018-12-25T08:23:46.568Z,88.00
2018-12-25T08:26:15.033Z,88.00
2018-12-25T08:28:43.506Z,88.00
2018-12-25T08:31:11.962Z,88.10
2018-12-25T08:33:40.414Z,87.60
2018-12-25T08:36:08.989Z,87.50
2018-12-25T08:38:37.456Z,87.60
2018-12-25T08:41:05.928Z,87.50
2018-12-25T08:43:34.410Z,87.70
2018-12-25T08:46:02.873Z,87.60
2018-12-25T08:48:31.365Z,87.50
2018-12-25T08:50:59.820Z,87.50
2018-12-25T08:53:28.292Z,87.50
2018-12-25T08:55:56.762Z,86.90
2018-12-25T08:58:25.221Z,86.90
2018-12-25T09:00:53.715Z,87.00
2018-12-25T09:03:22.175Z,86.90
2018-12-25T09:05:50.645Z,86.70
2018-12-25T09:08:19.100Z,86.60
2018-12-25T09:10:47.577Z,86.60
2018-12-25T09:13:16.221Z,86.50
2018-12-25T09:15:44.702Z,86.20
2018-12-25T09:18:13.175Z,86.00
2018-12-25T09:20:41.662Z,86.00
2018-12-25T09:23:10.128Z,86.00
2018-12-25T09:25:38.618Z,85.60
2018-12-25T09:28:07.177Z,85.90
2018-12-25T09:30:35.657Z,85.50
2018-12-25T09:33:04.105Z,85.30
2018-12-25T09:35:32.601Z,85.20
2018-12-25T09:38:01.082Z,85.10
2018-12-25T09:40:29.559Z,84.70
2018-12-25T09:42:58.016Z,85.00
2018-12-25T09:45:26.505Z,85.20
2018-12-25T09:47:54.970Z,84.90
2018-12-25T09:50:23.465Z,84.70
2018-12-25T09:52:51.927Z,84.90
2018-12-25T09:55:20.410Z,84.90
2018-12-25T09:57:48.879Z,84.40
2018-12-25T10:00:17.332Z,84.30
2018-12-25T10:02:45.828Z,84.10
2018-12-25T10:05:14.299Z,84.10
2018-12-25T10:07:42.839Z,84.20
2018-12-25T10:10:11.373Z,84.30
2018-12-25T10:12:39.846Z,84.20
2018-12-25T10:15:08.315Z,83.90
2018-12-25T10:17:36.782Z,84.20
2018-12-25T10:20:05.628Z,84.40
2018-12-25T10:22:34.118Z,84.70
2018-12-25T10:25:02.576Z,84.90
2018-12-25T10:27:31.054Z,84.80
2018-12-25T10:29:59.524Z,84.50
2018-12-25T10:32:28.012Z,84.60
2018-12-25T10:34:56.472Z,84.60
2018-12-25T10:37:24.944Z,84.40
2018-12-25T10:39:53.406Z,84.40
2018-12-25T10:42:21.864Z,84.40
2018-12-25T10:44:50.336Z,84.60
2018-12-25T10:47:18.838Z,84.50
2018-12-25T10:49:47.391Z,84.30
2018-12-25T10:52:16.555Z,84.20
2018-12-25T10:54:45.011Z,84.30
2018-12-25T10:57:13.482Z,84.50
2018-12-25T10:59:41.936Z,84.20
2018-12-25T11:02:10.453Z,83.90
2018-12-25T11:04:38.981Z,83.30
2018-12-25T11:07:07.466Z,83.60
2018-12-25T11:09:35.932Z,83.40
2018-12-25T11:12:04.418Z,83.10
2018-12-25T11:14:32.879Z,83.00
2018-12-25T11:17:01.377Z,83.10
2018-12-25T11:19:29.853Z,83.10
2018-12-25T11:21:58.331Z,83.00
2018-12-25T11:24:26.801Z,82.50
2018-12-25T11:26:55.263Z,82.60
2018-12-25T11:29:23.754Z,82.30
2018-12-25T11:31:52.218Z,83.10
2018-12-25T11:34:21.271Z,82.60
2018-12-25T11:36:50.309Z,82.80
2018-12-25T11:39:18.793Z,83.00
2018-12-25T11:41:47.267Z,83.30
2018-12-25T11:44:15.736Z,83.40
2018-12-25T11:46:44.205Z,83.60
2018-12-25T11:49:12.686Z,83.90
2018-12-25T11:51:41.157Z,84.20
2018-12-25T11:54:09.627Z,84.30
2018-12-25T11:56:38.095Z,84.20
2018-12-25T11:59:06.563Z,84.50
2018-12-25T12:01:35.034Z,84.80
2018-12-25T12:04:04.077Z,85.10
2018-12-25T12:06:32.532Z,84.90
2018-12-25T12:09:01.014Z,85.10
2018-12-25T12:11:29.473Z,84.80
2018-12-25T12:13:57.944Z,84.60
2018-12-25T12:16:26.420Z,85.10
2018-12-25T12:18:55.451Z,85.30
2018-12-25T12:21:23.930Z,85.40
2018-12-25T12:23:52.988Z,85.40
2018-12-25T12:26:21.461Z,85.30
2018-12-25T12:28:49.942Z,85.50
2018-12-25T12:31:18.407Z,85.40
2018-12-25T12:33:46.874Z,85.40
2018-12-25T12:36:15.340Z,85.30
2018-12-25T12:38:43.848Z,85.40
2018-12-25T12:41:12.467Z,85.50
2018-12-25T12:43:43.784Z,85.40
2018-12-25T12:46:12.262Z,85.70
2018-12-25T12:48:40.768Z,86.00
2018-12-25T12:51:09.307Z,86.00
2018-12-25T12:53:37.792Z,85.90
2018-12-25T12:56:06.260Z,85.80
2018-12-25T12:58:34.809Z,85.80
2018-12-25T13:01:03.310Z,85.90
2018-12-25T13:03:31.822Z,85.80
2018-12-25T13:06:00.305Z,85.70
2018-12-25T13:08:28.780Z,85.60
2018-12-25T13:10:57.252Z,85.70
2018-12-25T13:13:25.728Z,85.80
2018-12-25T13:15:54.201Z,85.80
2018-12-25T13:18:22.847Z,85.80
2018-12-25T13:20:51.333Z,85.80
2018-12-25T13:23:19.784Z,86.40
2018-12-25T13:25:48.281Z,85.60
2018-12-25T13:28:16.753Z,85.80
2018-12-25T13:30:45.245Z,85.80
2018-12-25T13:33:13.724Z,85.50
2018-12-25T13:35:42.207Z,85.30
2018-12-25T13:38:10.661Z,85.10
2018-12-25T13:40:39.145Z,84.90
2018-12-25T13:43:07.609Z,84.40
2018-12-25T13:45:36.120Z,84.20
2018-12-25T13:48:05.187Z,83.60
2018-12-25T13:50:33.661Z,83.70
2018-12-25T13:53:02.908Z,83.30
2018-12-25T13:55:31.976Z,83.30
2018-12-25T13:58:01.013Z,83.30
2018-12-25T14:00:31.331Z,83.20
2018-12-25T14:03:00.337Z,83.00
2018-12-25T14:05:28.827Z,82.70
2018-12-25T14:07:57.293Z,82.90
2018-12-25T14:10:25.768Z,82.60
2018-12-25T14:12:54.241Z,82.80
2018-12-25T14:15:24.659Z,83.50
2018-12-25T14:17:53.911Z,82.70
2018-12-25T14:20:22.962Z,82.50
2018-12-25T14:22:51.442Z,82.10
2018-12-25T14:25:19.900Z,82.60
2018-12-25T14:27:49.041Z,82.10
2018-12-25T14:30:17.603Z,82.00
2018-12-25T14:32:46.084Z,82.10
2018-12-25T14:35:14.574Z,82.40
2018-12-25T14:37:43.116Z,82.40
2018-12-25T14:40:12.148Z,82.40
2018-12-25T14:42:40.624Z,82.50
2018-12-25T14:45:09.073Z,82.60
2018-12-25T14:47:37.555Z,82.80
2018-12-25T14:50:08.467Z,82.60
2018-12-25T14:52:36.942Z,82.80
2018-12-25T14:55:05.582Z,83.00
2018-12-25T14:57:34.075Z,83.10
2018-12-25T15:00:02.631Z,83.30
2018-12-25T15:02:31.118Z,83.60
2018-12-25T15:04:59.588Z,83.80
2018-12-25T15:07:28.067Z,84.00
2018-12-25T15:09:57.095Z,84.40
2018-12-25T15:12:25.576Z,84.50
2018-12-25T15:14:54.403Z,84.80
2018-12-25T15:17:23.009Z,85.30
2018-12-25T15:19:52.035Z,85.10
2018-12-25T15:22:20.515Z,85.20
2018-12-25T15:24:49.078Z,85.10
2018-12-25T15:27:17.642Z,85.30
2018-12-25T15:29:46.117Z,85.30
2018-12-25T15:32:14.645Z,85.30
2018-12-25T15:34:43.740Z,85.40
2018-12-25T15:37:12.220Z,85.30
2018-12-25T15:39:40.710Z,85.40
2018-12-25T15:42:09.813Z,86.00
2018-12-25T15:44:38.286Z,85.30
2018-12-25T15:47:06.762Z,85.40
2018-12-25T15:49:35.213Z,85.40
2018-12-25T15:52:03.721Z,85.30
2018-12-25T15:54:32.175Z,85.30
2018-12-25T15:57:00.649Z,85.20
2018-12-25T15:59:29.201Z,85.10
2018-12-25T16:01:57.678Z,85.10
2018-12-25T16:04:26.155Z,85.00
2018-12-25T16:06:54.623Z,84.70
2018-12-25T16:09:23.189Z,84.80
2018-12-25T16:11:51.658Z,84.60
2018-12-25T16:14:20.158Z,84.70
2018-12-25T16:16:48.604Z,84.60
2018-12-25T16:19:17.130Z,84.50
2018-12-25T16:21:47.955Z,84.30
2018-12-25T16:24:17.054Z,84.30
2018-12-25T16:26:45.501Z,84.30
2018-12-25T16:29:14.042Z,84.00
2018-12-25T16:31:42.504Z,83.70
2018-12-25T16:34:10.981Z,84.60
2018-12-25T16:36:39.453Z,83.80
2018-12-25T16:39:07.938Z,83.80
2018-12-25T16:41:36.402Z,83.60
2018-12-25T16:44:04.883Z,83.60
2018-12-25T16:46:33.339Z,83.60
2018-12-25T16:49:01.819Z,84.10
2018-12-25T16:51:30.297Z,83.30
2018-12-25T16:53:58.765Z,83.40
2018-12-25T16:56:27.314Z,83.10
2018-12-25T16:58:55.820Z,83.10
2018-12-25T17:01:24.849Z,82.90
2018-12-25T17:03:53.358Z,82.80
2018-12-25T17:06:21.811Z,82.80
2018-12-25T17:08:50.851Z,82.80
2018-12-25T17:11:19.313Z,82.80
2018-12-25T17:13:47.794Z,82.80
2018-12-25T17:16:16.261Z,82.80
2018-12-25T17:18:44.751Z,83.10
2018-12-25T17:21:13.292Z,82.80
2018-12-25T17:23:41.790Z,82.80
2018-12-25T17:26:10.301Z,83.00
2018-12-25T17:28:38.768Z,82.90
2018-12-25T17:31:07.264Z,82.80
2018-12-25T17:33:35.722Z,82.80
2018-12-25T17:36:04.219Z,82.90
2018-12-25T17:38:32.683Z,82.90
2018-12-25T17:41:01.188Z,82.80
2018-12-25T17:43:29.648Z,82.90
2018-12-25T17:45:58.151Z,82.60
2018-12-25T17:48:26.630Z,82.80
2018-12-25T17:50:55.111Z,82.80
2018-12-25T17:53:23.566Z,82.70
2018-12-25T17:55:52.046Z,82.60
2018-12-25T17:58:20.504Z,82.60
2018-12-25T18:00:49.001Z,82.60
2018-12-25T18:03:17.456Z,82.20
2018-12-25T18:05:45.932Z,82.30
2018-12-25T18:08:14.397Z,82.30
2018-12-25T18:10:42.889Z,82.30
2018-12-25T18:13:11.370Z,82.30
2018-12-25T18:15:39.852Z,82.10
2018-12-25T18:18:08.310Z,81.80
2018-12-25T18:20:36.786Z,81.80
2018-12-25T18:23:05.264Z,81.60
2018-12-25T18:25:33.742Z,81.60
2018-12-25T18:28:02.293Z,81.30
2018-12-25T18:30:30.850Z,81.30
2018-12-25T18:32:59.413Z,81.10
2018-12-25T18:35:27.871Z,81.10
2018-12-25T18:37:56.365Z,79.80
2018-12-25T18:40:24.823Z,80.10
2018-12-25T18:42:53.382Z,80.40
2018-12-25T18:45:21.843Z,81.10
2018-12-25T18:47:50.335Z,80.20
2018-12-25T18:50:18.805Z,79.90
2018-12-25T18:52:47.291Z,80.10
2018-12-25T18:55:16.334Z,80.30
2018-12-25T18:57:44.797Z,80.30
2018-12-25T19:00:13.267Z,80.50
2018-12-25T19:02:41.763Z,80.70
2018-12-25T19:05:10.289Z,80.40
2018-12-25T19:07:38.956Z,80.60
2018-12-25T19:10:09.544Z,80.80
2018-12-25T19:12:38.025Z,80.80
2018-12-25T19:15:15.267Z,80.60
2018-12-25T19:17:43.739Z,80.50
2018-12-25T19:20:12.219Z,80.50
2018-12-25T19:22:40.693Z,80.10
2018-12-25T19:25:09.244Z,80.40
2018-12-25T19:27:37.720Z,80.50
2018-12-25T19:30:09.308Z,80.50
2018-12-25T19:32:43.769Z,80.50
2018-12-25T19:35:07.965Z,80.60
2018-12-25T19:37:36.430Z,80.70
2018-12-25T19:40:06.640Z,80.80
2018-12-25T19:42:35.111Z,81.00
2018-12-25T19:45:03.962Z,81.00
2018-12-25T19:47:32.419Z,81.00
2018-12-25T19:50:00.968Z,80.90
2018-12-25T19:52:29.484Z,80.60
2018-12-25T19:54:58.613Z,80.70
2018-12-25T19:57:27.638Z,80.70
2018-12-25T19:59:56.122Z,80.70
2018-12-25T20:02:25.701Z,80.60
2018-12-25T20:04:59.991Z,80.60
2018-12-25T20:07:43.946Z,80.70
2018-12-25T20:10:32.973Z,81.00
2018-12-25T20:13:04.575Z,81.10
2018-12-25T20:15:42.324Z,81.50
2018-12-25T20:18:35.307Z,81.50
2018-12-25T20:21:12.771Z,81.70
2018-12-25T20:24:19.594Z,82.00
2018-12-25T20:27:16.822Z,82.20
2018-12-25T20:30:03.392Z,82.50
2018-12-25T20:32:43.468Z,82.50
2018-12-25T20:35:15.008Z,82.70
2018-12-25T20:38:06.323Z,82.80
2018-12-25T20:41:06.890Z,83.00
2018-12-25T20:43:50.402Z,83.00
2018-12-25T20:46:43.334Z,83.20
2018-12-25T20:49:36.285Z,83.30
2018-12-25T20:52:07.867Z,83.40
2018-12-25T20:54:40.085Z,83.40
2018-12-25T20:57:37.032Z,84.10
2018-12-25T21:00:08.671Z,83.40
2018-12-25T21:02:40.302Z,83.40
2018-12-25T21:05:17.760Z,83.30
2018-12-25T21:08:17.802Z,83.20
2018-12-25T21:11:24.418Z,83.30
2018-12-25T21:13:55.984Z,83.20
2018-12-25T21:16:36.447Z,83.20
2018-12-25T21:19:19.952Z,83.10
2018-12-25T21:22:26.534Z,83.30
2018-12-25T21:25:31.286Z,83.20
2018-12-25T21:27:58.746Z,83.10
2018-12-25T21:30:27.543Z,83.10
2018-12-25T21:32:56.246Z,83.10
2018-12-25T21:35:24.802Z,83.10
2018-12-25T21:37:53.918Z,83.10
2018-12-25T21:40:22.612Z,83.00
2018-12-25T21:42:51.374Z,82.80
2018-12-25T21:45:20.000Z,83.10
2018-12-25T21:47:48.718Z,83.10
2018-12-25T21:50:17.509Z,83.10
2018-12-25T21:52:46.072Z,83.10
2018-12-25T21:55:18.819Z,83.10
2018-12-25T21:57:46.455Z,83.10
2018-12-25T22:00:15.004Z,83.00
2018-12-25T22:02:43.725Z,83.00
2018-12-25T22:05:12.677Z,83.00
2018-12-25T22:07:41.153Z,83.00
2018-12-25T22:10:09.710Z,83.00
2018-12-25T22:12:38.195Z,83.10
2018-12-25T22:15:08.640Z,83.00
2018-12-25T22:17:37.119Z,83.00
2018-12-25T22:20:14.493Z,83.00
2018-12-25T22:22:42.972Z,83.00
2018-12-25T22:25:11.465Z,83.00
2018-12-25T22:27:39.939Z,83.00
2018-12-25T22:30:08.483Z,82.80
2018-12-25T22:32:36.949Z,82.60
2018-12-25T22:35:05.487Z,82.70
2018-12-25T22:37:33.985Z,82.60
2018-12-25T22:40:02.641Z,82.60
2018-12-25T22:42:31.129Z,82.60
2018-12-25T22:44:59.609Z,82.60
2018-12-25T22:47:28.112Z,82.60
2018-12-25T22:49:56.646Z,82.60
2018-12-25T22:52:25.135Z,82.60
2018-12-25T22:54:53.597Z,82.60
2018-12-25T22:57:22.058Z,82.60
2018-12-25T22:59:50.571Z,82.60
2018-12-25T23:02:19.720Z,82.60
2018-12-25T23:04:48.794Z,82.60
2018-12-25T23:07:17.259Z,82.60
2018-12-25T23:09:46.388Z,82.60
2018-12-25T23:12:14.921Z,82.60
2018-12-25T23:14:43.476Z,83.50
2018-12-25T23:17:11.971Z,82.50
2018-12-25T23:19:40.508Z,82.50
2018-12-25T23:22:08.987Z,82.50
2018-12-25T23:24:37.480Z,82.50
2018-12-25T23:27:05.963Z,82.30
2018-12-25T23:29:35.080Z,82.30
2018-12-25T23:32:04.130Z,82.40
2018-12-25T23:34:33.171Z,82.30
2018-12-25T23:37:01.672Z,82.20
2018-12-25T23:39:30.112Z,82.10
2018-12-25T23:41:59.481Z,82.10
2018-12-25T23:44:28.144Z,82.10
2018-12-25T23:46:56.651Z,82.30
2018-12-25T23:49:25.127Z,82.30
2018-12-25T23:51:53.679Z,82.30
2018-12-25T23:54:22.134Z,82.20
2018-12-25T23:56:50.635Z,82.40
2018-12-25T23:59:19.110Z,82.40
